sensor_id;sensor_type;location;lat;lon;timestamp;temperature;humidity
5176;DHT22;2607;50.934;6.934;2022-07-01T00:01:22;15.40;99.90
5176;DHT22;2607;50.934;6.934;2022-07-01T00:03:48;15.30;99.90
5176;DHT22;2607;50.934;6.934;2022-07-01T00:06:17;15.30;99.90
5176;DHT22;2607;50.934;6.934;2022-07-01T00:08:43;15.30;99.90
5176;DHT22;2607;50.934;6.934;2022-07-01T00:11:09;15.30;99.90
5176;DHT22;2607;50.934;6.934;2022-07-01T00:13:35;15.30;99.90
5176;DHT22;2607;50.934;6.934;2022-07-01T00:16:01;15.30;99.90
5176;DHT22;2607;50.934;6.934;2022-07-01T00:18:26;15.30;99.90
5176;DHT22;2607;50.934;6.934;2022-07-01T00:20:52;15.30;99.90
5176;DHT22;2607;50.934;6.934;2022-07-01T00:23:18;15.30;99.90
5176;DHT22;2607;50.934;6.934;2022-07-01T00:25:44;15.30;99.90
5176;DHT22;2607;50.934;6.934;2022-07-01T00:28:10;15.30;99.90
5176;DHT22;2607;50.934;6.934;2022-07-01T00:30:36;15.30;99.90
5176;DHT22;2607;50.934;6.934;2022-07-01T00:33:02;15.30;99.90
5176;DHT22;2607;50.934;6.934;2022-07-01T00:35:28;15.20;99.90
5176;DHT22;2607;50.934;6.934;2022-07-01T00:37:54;15.30;99.90
5176;DHT22;2607;50.934;6.934;2022-07-01T00:40:20;15.20;99.90
5176;DHT22;2607;50.934;6.934;2022-07-01T00:42:45;15.20;99.90
5176;DHT22;2607;50.934;6.934;2022-07-01T00:45:11;15.20;99.90
5176;DHT22;2607;50.934;6.934;2022-07-01T00:47:38;15.20;99.90
5176;DHT22;2607;50.934;6.934;2022-07-01T00:50:09;15.20;99.90
5176;DHT22;2607;50.934;6.934;2022-07-01T00:52:36;15.20;99.90
5176;DHT22;2607;50.934;6.934;2022-07-01T00:55:06;15.20;99.90
5176;DHT22;2607;50.934;6.934;2022-07-01T00:57:42;15.20;99.90
5176;DHT22;2607;50.934;6.934;2022-07-01T01:00:15;15.20;99.90
5176;DHT22;2607;50.934;6.934;2022-07-01T01:02:41;15.30;99.90
5176;DHT22;2607;50.934;6.934;2022-07-01T01:05:07;15.20;99.90
5176;DHT22;2607;50.934;6.934;2022-07-01T01:07:34;15.30;99.90
5176;DHT22;2607;50.934;6.934;2022-07-01T01:10:00;15.20;99.90
5176;DHT22;2607;50.934;6.934;2022-07-01T01:12:28;15.20;99.90
5176;DHT22;2607;50.934;6.934;2022-07-01T01:14:55;15.20;99.90
5176;DHT22;2607;50.934;6.934;2022-07-01T01:17:22;15.20;99.90
5176;DHT22;2607;50.934;6.934;2022-07-01T01:19:48;15.20;99.90
5176;DHT22;2607;50.934;6.934;2022-07-01T01:22:15;15.20;99.90
5176;DHT22;2607;50.934;6.934;2022-07-01T01:24:42;15.20;99.90
5176;DHT22;2607;50.934;6.934;2022-07-01T01:27:08;15.20;99.90
5176;DHT22;2607;50.934;6.934;2022-07-01T01:29:35;15.20;99.90
5176;DHT22;2607;50.934;6.934;2022-07-01T01:32:02;15.20;99.90
5176;DHT22;2607;50.934;6.934;2022-07-01T01:34:28;15.30;99.90
5176;DHT22;2607;50.934;6.934;2022-07-01T01:36:53;15.30;99.90
5176;DHT22;2607;50.934;6.934;2022-07-01T01:39:19;15.30;99.90
5176;DHT22;2607;50.934;6.934;2022-07-01T01:41:46;15.30;99.90
5176;DHT22;2607;50.934;6.934;2022-07-01T01:44:12;15.30;99.90
5176;DHT22;2607;50.934;6.934;2022-07-01T01:46:37;15.30;99.90
5176;DHT22;2607;50.934;6.934;2022-07-01T01:49:04;15.30;99.90
5176;DHT22;2607;50.934;6.934;2022-07-01T01:51:30;15.30;99.90
5176;DHT22;2607;50.934;6.934;2022-07-01T01:53:56;15.30;99.90
5176;DHT22;2607;50.934;6.934;2022-07-01T01:56:22;15.30;99.90
5176;DHT22;2607;50.934;6.934;2022-07-01T01:58:48;15.30;99.90
5176;DHT22;2607;50.934;6.934;2022-07-01T02:01:16;15.30;99.90
5176;DHT22;2607;50.934;6.934;2022-07-01T02:03:42;15.30;99.90
5176;DHT22;2607;50.934;6.934;2022-07-01T02:06:09;15.20;99.90
5176;DHT22;2607;50.934;6.934;2022-07-01T02:08:36;15.20;99.90
5176;DHT22;2607;50.934;6.934;2022-07-01T02:11:02;15.20;99.90
5176;DHT22;2607;50.934;6.934;2022-07-01T02:13:28;15.20;99.90
5176;DHT22;2607;50.934;6.934;2022-07-01T02:15:53;15.10;99.90
5176;DHT22;2607;50.934;6.934;2022-07-01T02:18:19;15.10;99.90
5176;DHT22;2607;50.934;6.934;2022-07-01T02:20:44;15.10;99.90
5176;DHT22;2607;50.934;6.934;2022-07-01T02:23:10;15.10;99.90
5176;DHT22;2607;50.934;6.934;2022-07-01T02:25:36;15.10;99.90
5176;DHT22;2607;50.934;6.934;2022-07-01T02:28:02;15.10;99.90
5176;DHT22;2607;50.934;6.934;2022-07-01T02:30:28;15.10;99.90
5176;DHT22;2607;50.934;6.934;2022-07-01T02:32:56;15.00;99.90
5176;DHT22;2607;50.934;6.934;2022-07-01T02:35:22;15.00;99.90
5176;DHT22;2607;50.934;6.934;2022-07-01T02:37:48;15.10;99.90
5176;DHT22;2607;50.934;6.934;2022-07-01T02:40:13;15.10;99.90
5176;DHT22;2607;50.934;6.934;2022-07-01T02:42:39;15.00;99.90
5176;DHT22;2607;50.934;6.934;2022-07-01T02:45:06;15.10;99.90
5176;DHT22;2607;50.934;6.934;2022-07-01T02:47:40;15.10;99.90
5176;DHT22;2607;50.934;6.934;2022-07-01T02:50:08;15.10;99.90
5176;DHT22;2607;50.934;6.934;2022-07-01T02:52:35;15.10;99.90
5176;DHT22;2607;50.934;6.934;2022-07-01T02:55:02;15.10;99.90
5176;DHT22;2607;50.934;6.934;2022-07-01T02:57:28;15.00;99.90
5176;DHT22;2607;50.934;6.934;2022-07-01T02:59:54;15.10;99.90
5176;DHT22;2607;50.934;6.934;2022-07-01T03:02:20;15.10;99.90
5176;DHT22;2607;50.934;6.934;2022-07-01T03:04:46;15.10;99.90
5176;DHT22;2607;50.934;6.934;2022-07-01T03:07:13;15.10;99.90
5176;DHT22;2607;50.934;6.934;2022-07-01T03:09:39;15.10;99.90
5176;DHT22;2607;50.934;6.934;2022-07-01T03:12:07;15.10;99.90
5176;DHT22;2607;50.934;6.934;2022-07-01T03:14:51;15.10;99.90
5176;DHT22;2607;50.934;6.934;2022-07-01T03:17:17;15.10;99.90
5176;DHT22;2607;50.934;6.934;2022-07-01T03:19:44;15.10;99.90
5176;DHT22;2607;50.934;6.934;2022-07-01T03:22:10;15.10;99.90
5176;DHT22;2607;50.934;6.934;2022-07-01T03:24:35;15.10;99.90
5176;DHT22;2607;50.934;6.934;2022-07-01T03:27:01;15.10;99.90
5176;DHT22;2607;50.934;6.934;2022-07-01T03:29:26;15.10;99.90
5176;DHT22;2607;50.934;6.934;2022-07-01T03:31:52;15.10;99.90
5176;DHT22;2607;50.934;6.934;2022-07-01T03:34:17;15.10;99.90
5176;DHT22;2607;50.934;6.934;2022-07-01T03:36:43;15.10;99.90
5176;DHT22;2607;50.934;6.934;2022-07-01T03:39:09;15.10;99.90
5176;DHT22;2607;50.934;6.934;2022-07-01T03:41:34;15.10;99.90
5176;DHT22;2607;50.934;6.934;2022-07-01T03:44:00;15.20;99.90
5176;DHT22;2607;50.934;6.934;2022-07-01T03:46:25;15.20;99.90
5176;DHT22;2607;50.934;6.934;2022-07-01T03:48:51;15.20;99.90
5176;DHT22;2607;50.934;6.934;2022-07-01T03:51:17;15.20;99.90
5176;DHT22;2607;50.934;6.934;2022-07-01T03:53:42;15.20;99.90
5176;DHT22;2607;50.934;6.934;2022-07-01T03:56:26;15.20;99.90
5176;DHT22;2607;50.934;6.934;2022-07-01T03:58:52;15.20;99.90
5176;DHT22;2607;50.934;6.934;2022-07-01T04:01:17;15.20;99.90
5176;DHT22;2607;50.934;6.934;2022-07-01T04:03:43;15.20;99.90
5176;DHT22;2607;50.934;6.934;2022-07-01T04:06:09;15.20;99.90
5176;DHT22;2607;50.934;6.934;2022-07-01T04:08:34;15.20;99.90
5176;DHT22;2607;50.934;6.934;2022-07-01T04:11:00;15.20;99.90
5176;DHT22;2607;50.934;6.934;2022-07-01T04:13:27;15.20;99.90
5176;DHT22;2607;50.934;6.934;2022-07-01T04:15:53;15.20;99.90
5176;DHT22;2607;50.934;6.934;2022-07-01T04:18:18;15.10;99.90
5176;DHT22;2607;50.934;6.934;2022-07-01T04:20:44;15.10;99.90
5176;DHT22;2607;50.934;6.934;2022-07-01T04:23:30;15.10;99.90
5176;DHT22;2607;50.934;6.934;2022-07-01T04:25:55;15.10;99.90
5176;DHT22;2607;50.934;6.934;2022-07-01T04:28:21;15.20;99.90
5176;DHT22;2607;50.934;6.934;2022-07-01T04:30:46;15.10;99.90
5176;DHT22;2607;50.934;6.934;2022-07-01T04:33:12;15.10;99.90
5176;DHT22;2607;50.934;6.934;2022-07-01T04:35:38;15.20;99.90
5176;DHT22;2607;50.934;6.934;2022-07-01T04:38:04;15.20;99.90
5176;DHT22;2607;50.934;6.934;2022-07-01T04:40:30;15.20;99.90
5176;DHT22;2607;50.934;6.934;2022-07-01T04:42:56;15.20;99.90
5176;DHT22;2607;50.934;6.934;2022-07-01T04:45:21;15.20;99.90
5176;DHT22;2607;50.934;6.934;2022-07-01T04:47:47;15.10;99.90
5176;DHT22;2607;50.934;6.934;2022-07-01T04:50:12;15.10;99.90
5176;DHT22;2607;50.934;6.934;2022-07-01T04:52:38;15.10;99.90
5176;DHT22;2607;50.934;6.934;2022-07-01T04:55:04;15.10;99.90
5176;DHT22;2607;50.934;6.934;2022-07-01T04:57:30;15.10;99.90
5176;DHT22;2607;50.934;6.934;2022-07-01T04:59:55;15.10;99.90
5176;DHT22;2607;50.934;6.934;2022-07-01T05:02:21;15.10;99.90
5176;DHT22;2607;50.934;6.934;2022-07-01T05:04:46;15.00;99.90
5176;DHT22;2607;50.934;6.934;2022-07-01T05:07:12;15.00;99.90
5176;DHT22;2607;50.934;6.934;2022-07-01T05:09:57;15.00;99.90
5176;DHT22;2607;50.934;6.934;2022-07-01T05:12:24;15.00;99.90
5176;DHT22;2607;50.934;6.934;2022-07-01T05:14:50;15.00;99.90
5176;DHT22;2607;50.934;6.934;2022-07-01T05:17:16;15.00;99.90
5176;DHT22;2607;50.934;6.934;2022-07-01T05:19:41;15.00;99.90
5176;DHT22;2607;50.934;6.934;2022-07-01T05:22:25;15.00;99.90
5176;DHT22;2607;50.934;6.934;2022-07-01T05:24:51;15.00;99.90
5176;DHT22;2607;50.934;6.934;2022-07-01T05:27:16;15.00;99.90
5176;DHT22;2607;50.934;6.934;2022-07-01T05:29:42;15.00;99.90
5176;DHT22;2607;50.934;6.934;2022-07-01T05:32:08;15.10;99.90
5176;DHT22;2607;50.934;6.934;2022-07-01T05:34:33;15.20;99.90
5176;DHT22;2607;50.934;6.934;2022-07-01T05:36:59;15.20;99.90
5176;DHT22;2607;50.934;6.934;2022-07-01T05:39:24;15.20;99.90
5176;DHT22;2607;50.934;6.934;2022-07-01T05:41:50;15.20;99.90
5176;DHT22;2607;50.934;6.934;2022-07-01T05:44:16;15.30;99.90
5176;DHT22;2607;50.934;6.934;2022-07-01T05:46:42;15.30;99.90
5176;DHT22;2607;50.934;6.934;2022-07-01T05:49:07;15.30;99.90
5176;DHT22;2607;50.934;6.934;2022-07-01T05:51:33;15.30;99.90
5176;DHT22;2607;50.934;6.934;2022-07-01T05:53:58;15.40;99.90
5176;DHT22;2607;50.934;6.934;2022-07-01T05:56:25;15.40;99.90
5176;DHT22;2607;50.934;6.934;2022-07-01T05:58:52;15.40;99.90
5176;DHT22;2607;50.934;6.934;2022-07-01T06:01:17;15.40;99.90
5176;DHT22;2607;50.934;6.934;2022-07-01T06:03:43;15.40;99.90
5176;DHT22;2607;50.934;6.934;2022-07-01T06:06:09;15.40;99.90
5176;DHT22;2607;50.934;6.934;2022-07-01T06:08:34;15.50;99.90
5176;DHT22;2607;50.934;6.934;2022-07-01T06:11:00;15.50;99.90
5176;DHT22;2607;50.934;6.934;2022-07-01T06:13:26;15.50;99.90
5176;DHT22;2607;50.934;6.934;2022-07-01T06:15:51;15.60;99.90
5176;DHT22;2607;50.934;6.934;2022-07-01T06:18:17;15.60;99.90
5176;DHT22;2607;50.934;6.934;2022-07-01T06:20:43;15.60;99.90
5176;DHT22;2607;50.934;6.934;2022-07-01T06:23:08;15.70;99.90
5176;DHT22;2607;50.934;6.934;2022-07-01T06:25:34;15.80;99.90
5176;DHT22;2607;50.934;6.934;2022-07-01T06:27:59;15.80;99.90
5176;DHT22;2607;50.934;6.934;2022-07-01T06:30:25;15.90;99.90
5176;DHT22;2607;50.934;6.934;2022-07-01T06:32:51;15.90;99.90
5176;DHT22;2607;50.934;6.934;2022-07-01T06:35:16;15.90;99.90
5176;DHT22;2607;50.934;6.934;2022-07-01T06:37:42;15.90;99.90
5176;DHT22;2607;50.934;6.934;2022-07-01T06:40:08;15.90;99.90
5176;DHT22;2607;50.934;6.934;2022-07-01T06:42:34;16.00;99.90
5176;DHT22;2607;50.934;6.934;2022-07-01T06:45:00;16.10;99.90
5176;DHT22;2607;50.934;6.934;2022-07-01T06:47:25;16.10;99.90
5176;DHT22;2607;50.934;6.934;2022-07-01T06:49:51;16.20;99.90
5176;DHT22;2607;50.934;6.934;2022-07-01T06:52:16;16.20;99.90
5176;DHT22;2607;50.934;6.934;2022-07-01T06:54:42;16.30;99.90
5176;DHT22;2607;50.934;6.934;2022-07-01T06:57:08;16.30;99.90
5176;DHT22;2607;50.934;6.934;2022-07-01T06:59:33;16.40;99.90
5176;DHT22;2607;50.934;6.934;2022-07-01T07:01:59;16.30;99.90
5176;DHT22;2607;50.934;6.934;2022-07-01T07:04:25;16.30;99.90
5176;DHT22;2607;50.934;6.934;2022-07-01T07:06:50;16.30;99.90
5176;DHT22;2607;50.934;6.934;2022-07-01T07:09:16;16.30;99.90
5176;DHT22;2607;50.934;6.934;2022-07-01T07:11:42;16.30;99.90
5176;DHT22;2607;50.934;6.934;2022-07-01T07:14:07;16.30;99.90
5176;DHT22;2607;50.934;6.934;2022-07-01T07:16:33;16.30;99.90
5176;DHT22;2607;50.934;6.934;2022-07-01T07:18:58;16.20;99.90
5176;DHT22;2607;50.934;6.934;2022-07-01T07:21:24;16.20;99.90
5176;DHT22;2607;50.934;6.934;2022-07-01T07:23:50;16.20;99.90
5176;DHT22;2607;50.934;6.934;2022-07-01T07:26:15;16.30;99.90
5176;DHT22;2607;50.934;6.934;2022-07-01T07:28:41;16.30;99.90
5176;DHT22;2607;50.934;6.934;2022-07-01T07:31:06;16.40;99.90
5176;DHT22;2607;50.934;6.934;2022-07-01T07:33:32;16.50;99.90
5176;DHT22;2607;50.934;6.934;2022-07-01T07:35:58;16.50;99.90
5176;DHT22;2607;50.934;6.934;2022-07-01T07:38:23;16.50;99.90
5176;DHT22;2607;50.934;6.934;2022-07-01T07:40:49;16.60;99.90
5176;DHT22;2607;50.934;6.934;2022-07-01T07:43:15;16.60;99.90
5176;DHT22;2607;50.934;6.934;2022-07-01T07:45:40;16.70;99.90
5176;DHT22;2607;50.934;6.934;2022-07-01T07:48:06;16.70;99.90
5176;DHT22;2607;50.934;6.934;2022-07-01T07:50:32;16.70;99.90
5176;DHT22;2607;50.934;6.934;2022-07-01T07:52:58;16.70;99.90
5176;DHT22;2607;50.934;6.934;2022-07-01T07:55:24;16.70;99.90
5176;DHT22;2607;50.934;6.934;2022-07-01T07:57:50;16.60;99.90
5176;DHT22;2607;50.934;6.934;2022-07-01T08:00:16;16.60;99.90
5176;DHT22;2607;50.934;6.934;2022-07-01T08:02:42;16.70;99.90
5176;DHT22;2607;50.934;6.934;2022-07-01T08:05:09;16.70;99.90
5176;DHT22;2607;50.934;6.934;2022-07-01T08:07:40;16.70;99.90
5176;DHT22;2607;50.934;6.934;2022-07-01T08:10:07;16.70;99.90
5176;DHT22;2607;50.934;6.934;2022-07-01T08:12:34;16.70;99.90
5176;DHT22;2607;50.934;6.934;2022-07-01T08:15:00;16.80;99.90
5176;DHT22;2607;50.934;6.934;2022-07-01T08:17:26;16.80;99.90
5176;DHT22;2607;50.934;6.934;2022-07-01T08:19:52;16.90;99.90
5176;DHT22;2607;50.934;6.934;2022-07-01T08:22:18;17.00;99.90
5176;DHT22;2607;50.934;6.934;2022-07-01T08:24:44;17.10;99.90
5176;DHT22;2607;50.934;6.934;2022-07-01T08:27:10;17.10;99.90
5176;DHT22;2607;50.934;6.934;2022-07-01T08:29:35;17.10;99.90
5176;DHT22;2607;50.934;6.934;2022-07-01T08:32:01;17.10;99.90
5176;DHT22;2607;50.934;6.934;2022-07-01T08:34:26;17.10;99.90
5176;DHT22;2607;50.934;6.934;2022-07-01T08:36:52;17.20;99.90
5176;DHT22;2607;50.934;6.934;2022-07-01T08:39:17;17.20;99.90
5176;DHT22;2607;50.934;6.934;2022-07-01T08:41:43;17.30;99.90
5176;DHT22;2607;50.934;6.934;2022-07-01T08:44:09;17.30;99.90
5176;DHT22;2607;50.934;6.934;2022-07-01T08:46:35;17.40;99.90
5176;DHT22;2607;50.934;6.934;2022-07-01T08:49:01;17.40;99.90
5176;DHT22;2607;50.934;6.934;2022-07-01T08:51:27;17.40;99.90
5176;DHT22;2607;50.934;6.934;2022-07-01T08:53:53;17.40;99.90
5176;DHT22;2607;50.934;6.934;2022-07-01T08:56:18;17.40;99.90
5176;DHT22;2607;50.934;6.934;2022-07-01T08:59:02;17.40;99.90
5176;DHT22;2607;50.934;6.934;2022-07-01T09:01:28;17.40;99.90
5176;DHT22;2607;50.934;6.934;2022-07-01T09:03:56;17.50;99.90
5176;DHT22;2607;50.934;6.934;2022-07-01T09:06:25;17.50;99.90
5176;DHT22;2607;50.934;6.934;2022-07-01T09:08:51;17.60;99.90
5176;DHT22;2607;50.934;6.934;2022-07-01T09:11:22;17.70;99.90
5176;DHT22;2607;50.934;6.934;2022-07-01T09:17:02;17.80;99.90
5176;DHT22;2607;50.934;6.934;2022-07-01T09:19:31;17.80;99.90
5176;DHT22;2607;50.934;6.934;2022-07-01T09:22:01;17.80;99.90
5176;DHT22;2607;50.934;6.934;2022-07-01T09:24:36;17.70;99.90
5176;DHT22;2607;50.934;6.934;2022-07-01T09:27:10;17.70;99.90
5176;DHT22;2607;50.934;6.934;2022-07-01T09:29:51;17.70;99.90
5176;DHT22;2607;50.934;6.934;2022-07-01T09:32:21;17.80;99.90
5176;DHT22;2607;50.934;6.934;2022-07-01T09:34:53;18.00;99.90
5176;DHT22;2607;50.934;6.934;2022-07-01T09:37:21;18.10;99.90
5176;DHT22;2607;50.934;6.934;2022-07-01T09:39:49;18.20;99.90
5176;DHT22;2607;50.934;6.934;2022-07-01T09:42:16;18.30;99.90
5176;DHT22;2607;50.934;6.934;2022-07-01T09:44:59;18.40;99.90
5176;DHT22;2607;50.934;6.934;2022-07-01T09:47:26;18.40;99.90
5176;DHT22;2607;50.934;6.934;2022-07-01T09:49:53;18.40;99.90
5176;DHT22;2607;50.934;6.934;2022-07-01T09:52:19;18.60;99.90
5176;DHT22;2607;50.934;6.934;2022-07-01T09:54:46;18.60;99.90
5176;DHT22;2607;50.934;6.934;2022-07-01T09:57:16;18.70;99.90
5176;DHT22;2607;50.934;6.934;2022-07-01T09:59:42;18.80;99.90
5176;DHT22;2607;50.934;6.934;2022-07-01T10:02:08;18.90;99.90
5176;DHT22;2607;50.934;6.934;2022-07-01T10:04:36;19.00;99.90
5176;DHT22;2607;50.934;6.934;2022-07-01T10:12:55;18.90;99.90
5176;DHT22;2607;50.934;6.934;2022-07-01T10:15:21;19.00;99.90
5176;DHT22;2607;50.934;6.934;2022-07-01T10:17:50;19.00;99.90
5176;DHT22;2607;50.934;6.934;2022-07-01T10:20:18;19.10;99.40
5176;DHT22;2607;50.934;6.934;2022-07-01T10:22:45;19.00;99.10
5176;DHT22;2607;50.934;6.934;2022-07-01T10:25:40;18.90;99.50
5176;DHT22;2607;50.934;6.934;2022-07-01T10:31:11;18.80;99.80
5176;DHT22;2607;50.934;6.934;2022-07-01T10:33:58;18.80;99.90
5176;DHT22;2607;50.934;6.934;2022-07-01T10:36:32;18.90;99.10
5176;DHT22;2607;50.934;6.934;2022-07-01T10:41:28;18.90;98.30
5176;DHT22;2607;50.934;6.934;2022-07-01T10:43:55;18.90;98.20
5176;DHT22;2607;50.934;6.934;2022-07-01T10:49:13;18.90;98.20
5176;DHT22;2607;50.934;6.934;2022-07-01T10:54:08;19.10;97.70
5176;DHT22;2607;50.934;6.934;2022-07-01T10:56:40;19.10;97.60
5176;DHT22;2607;50.934;6.934;2022-07-01T10:59:07;19.00;97.50
5176;DHT22;2607;50.934;6.934;2022-07-01T11:01:33;19.10;97.50
5176;DHT22;2607;50.934;6.934;2022-07-01T11:03:59;19.10;97.90
5176;DHT22;2607;50.934;6.934;2022-07-01T11:06:25;19.10;97.70
5176;DHT22;2607;50.934;6.934;2022-07-01T11:08:51;19.20;97.60
5176;DHT22;2607;50.934;6.934;2022-07-01T11:11:17;19.20;97.20
5176;DHT22;2607;50.934;6.934;2022-07-01T11:13:45;19.30;97.20
5176;DHT22;2607;50.934;6.934;2022-07-01T11:16:10;19.30;97.20
5176;DHT22;2607;50.934;6.934;2022-07-01T11:18:36;19.30;97.00
5176;DHT22;2607;50.934;6.934;2022-07-01T11:21:03;19.40;96.60
5176;DHT22;2607;50.934;6.934;2022-07-01T11:23:29;19.30;96.10
5176;DHT22;2607;50.934;6.934;2022-07-01T11:25:54;19.30;95.80
5176;DHT22;2607;50.934;6.934;2022-07-01T11:28:20;19.30;95.00
5176;DHT22;2607;50.934;6.934;2022-07-01T11:30:45;19.20;95.10
5176;DHT22;2607;50.934;6.934;2022-07-01T11:33:11;19.30;95.00
5176;DHT22;2607;50.934;6.934;2022-07-01T11:35:37;19.30;94.60
5176;DHT22;2607;50.934;6.934;2022-07-01T11:38:24;19.40;95.00
5176;DHT22;2607;50.934;6.934;2022-07-01T11:41:22;19.60;94.10
5176;DHT22;2607;50.934;6.934;2022-07-01T11:43:51;19.60;93.80
5176;DHT22;2607;50.934;6.934;2022-07-01T11:46:17;19.70;93.60
5176;DHT22;2607;50.934;6.934;2022-07-01T11:48:46;19.90;93.90
5176;DHT22;2607;50.934;6.934;2022-07-01T11:51:16;19.90;93.90
5176;DHT22;2607;50.934;6.934;2022-07-01T11:53:45;19.90;93.80
5176;DHT22;2607;50.934;6.934;2022-07-01T11:56:12;19.90;94.30
5176;DHT22;2607;50.934;6.934;2022-07-01T12:01:09;19.80;94.30
5176;DHT22;2607;50.934;6.934;2022-07-01T12:03:36;19.70;94.40
5176;DHT22;2607;50.934;6.934;2022-07-01T12:06:04;19.80;94.20
5176;DHT22;2607;50.934;6.934;2022-07-01T12:08:30;19.90;94.10
5176;DHT22;2607;50.934;6.934;2022-07-01T12:10:55;20.10;93.90
5176;DHT22;2607;50.934;6.934;2022-07-01T12:13:26;20.30;92.50
5176;DHT22;2607;50.934;6.934;2022-07-01T12:15:52;20.30;92.60
5176;DHT22;2607;50.934;6.934;2022-07-01T12:18:18;20.30;92.50
5176;DHT22;2607;50.934;6.934;2022-07-01T12:20:53;20.20;91.60
5176;DHT22;2607;50.934;6.934;2022-07-01T12:23:18;20.10;91.40
5176;DHT22;2607;50.934;6.934;2022-07-01T12:25:51;20.00;91.40
5176;DHT22;2607;50.934;6.934;2022-07-01T12:28:38;19.90;91.50
5176;DHT22;2607;50.934;6.934;2022-07-01T12:31:08;19.90;92.10
5176;DHT22;2607;50.934;6.934;2022-07-01T12:33:38;20.00;92.40
5176;DHT22;2607;50.934;6.934;2022-07-01T12:36:05;20.20;92.00
5176;DHT22;2607;50.934;6.934;2022-07-01T12:38:32;20.40;90.50
5176;DHT22;2607;50.934;6.934;2022-07-01T12:40:58;20.40;90.30
5176;DHT22;2607;50.934;6.934;2022-07-01T12:43:29;20.40;89.60
5176;DHT22;2607;50.934;6.934;2022-07-01T12:45:57;20.40;89.50
5176;DHT22;2607;50.934;6.934;2022-07-01T12:48:23;20.40;89.80
5176;DHT22;2607;50.934;6.934;2022-07-01T12:50:52;20.40;90.40
5176;DHT22;2607;50.934;6.934;2022-07-01T12:53:19;20.50;90.20
5176;DHT22;2607;50.934;6.934;2022-07-01T12:55:48;20.60;90.70
5176;DHT22;2607;50.934;6.934;2022-07-01T12:58:18;20.60;90.10
5176;DHT22;2607;50.934;6.934;2022-07-01T13:00:55;20.70;90.00
5176;DHT22;2607;50.934;6.934;2022-07-01T13:03:24;20.70;90.20
5176;DHT22;2607;50.934;6.934;2022-07-01T13:05:51;20.70;90.60
5176;DHT22;2607;50.934;6.934;2022-07-01T13:08:18;20.70;90.70
5176;DHT22;2607;50.934;6.934;2022-07-01T13:10:45;20.70;90.70
5176;DHT22;2607;50.934;6.934;2022-07-01T13:13:12;20.80;88.80
5176;DHT22;2607;50.934;6.934;2022-07-01T13:15:38;20.80;88.70
5176;DHT22;2607;50.934;6.934;2022-07-01T13:18:05;20.70;87.10
5176;DHT22;2607;50.934;6.934;2022-07-01T13:20:31;20.60;86.30
5176;DHT22;2607;50.934;6.934;2022-07-01T13:22:56;20.60;86.90
5176;DHT22;2607;50.934;6.934;2022-07-01T13:25:22;20.40;86.70
5176;DHT22;2607;50.934;6.934;2022-07-01T13:27:48;20.40;86.50
5176;DHT22;2607;50.934;6.934;2022-07-01T13:30:15;20.40;85.80
5176;DHT22;2607;50.934;6.934;2022-07-01T13:32:41;20.50;85.20
5176;DHT22;2607;50.934;6.934;2022-07-01T13:35:12;20.60;85.30
5176;DHT22;2607;50.934;6.934;2022-07-01T13:37:39;20.60;85.60
5176;DHT22;2607;50.934;6.934;2022-07-01T13:40:06;20.60;84.80
5176;DHT22;2607;50.934;6.934;2022-07-01T13:42:32;20.70;84.90
5176;DHT22;2607;50.934;6.934;2022-07-01T13:44:57;20.70;83.80
5176;DHT22;2607;50.934;6.934;2022-07-01T13:47:23;20.70;84.60
5176;DHT22;2607;50.934;6.934;2022-07-01T13:49:50;20.80;82.70
5176;DHT22;2607;50.934;6.934;2022-07-01T13:52:15;20.80;82.20
5176;DHT22;2607;50.934;6.934;2022-07-01T13:54:41;20.80;82.70
5176;DHT22;2607;50.934;6.934;2022-07-01T13:57:07;20.90;83.30
5176;DHT22;2607;50.934;6.934;2022-07-01T13:59:32;20.90;83.00
5176;DHT22;2607;50.934;6.934;2022-07-01T14:01:59;21.00;82.80
5176;DHT22;2607;50.934;6.934;2022-07-01T14:04:25;21.00;82.90
5176;DHT22;2607;50.934;6.934;2022-07-01T14:06:50;21.10;82.10
5176;DHT22;2607;50.934;6.934;2022-07-01T14:09:16;21.20;82.50
5176;DHT22;2607;50.934;6.934;2022-07-01T14:11:42;21.10;82.50
5176;DHT22;2607;50.934;6.934;2022-07-01T14:14:07;21.20;82.80
5176;DHT22;2607;50.934;6.934;2022-07-01T14:16:33;21.40;82.90
5176;DHT22;2607;50.934;6.934;2022-07-01T14:18:59;21.40;82.90
5176;DHT22;2607;50.934;6.934;2022-07-01T14:21:25;21.50;82.90
5176;DHT22;2607;50.934;6.934;2022-07-01T14:23:50;21.50;81.50
5176;DHT22;2607;50.934;6.934;2022-07-01T14:26:16;21.30;80.50
5176;DHT22;2607;50.934;6.934;2022-07-01T14:28:42;21.30;81.20
5176;DHT22;2607;50.934;6.934;2022-07-01T14:31:07;21.10;82.00
5176;DHT22;2607;50.934;6.934;2022-07-01T14:33:33;21.00;82.50
5176;DHT22;2607;50.934;6.934;2022-07-01T14:35:59;20.90;83.10
5176;DHT22;2607;50.934;6.934;2022-07-01T14:38:25;20.90;83.80
5176;DHT22;2607;50.934;6.934;2022-07-01T14:40:50;20.90;84.10
5176;DHT22;2607;50.934;6.934;2022-07-01T14:43:16;20.90;84.40
5176;DHT22;2607;50.934;6.934;2022-07-01T14:45:42;20.90;84.20
5176;DHT22;2607;50.934;6.934;2022-07-01T14:48:08;21.10;82.90
5176;DHT22;2607;50.934;6.934;2022-07-01T14:50:34;21.10;82.40
5176;DHT22;2607;50.934;6.934;2022-07-01T14:53:00;21.10;82.80
5176;DHT22;2607;50.934;6.934;2022-07-01T14:55:28;21.10;83.30
5176;DHT22;2607;50.934;6.934;2022-07-01T14:57:54;21.00;83.30
5176;DHT22;2607;50.934;6.934;2022-07-01T15:00:20;21.00;83.60
5176;DHT22;2607;50.934;6.934;2022-07-01T15:02:46;21.00;83.80
5176;DHT22;2607;50.934;6.934;2022-07-01T15:05:12;21.10;82.50
5176;DHT22;2607;50.934;6.934;2022-07-01T15:07:38;21.20;82.70
5176;DHT22;2607;50.934;6.934;2022-07-01T15:10:05;21.20;82.60
5176;DHT22;2607;50.934;6.934;2022-07-01T15:12:31;21.20;82.00
5176;DHT22;2607;50.934;6.934;2022-07-01T15:14:57;21.20;83.20
5176;DHT22;2607;50.934;6.934;2022-07-01T15:17:23;21.30;83.30
5176;DHT22;2607;50.934;6.934;2022-07-01T15:19:49;21.30;83.30
5176;DHT22;2607;50.934;6.934;2022-07-01T15:22:15;21.30;83.40
5176;DHT22;2607;50.934;6.934;2022-07-01T15:24:40;21.30;82.50
5176;DHT22;2607;50.934;6.934;2022-07-01T15:27:06;21.40;82.40
5176;DHT22;2607;50.934;6.934;2022-07-01T15:29:32;21.50;81.70
5176;DHT22;2607;50.934;6.934;2022-07-01T15:31:59;21.50;81.20
5176;DHT22;2607;50.934;6.934;2022-07-01T15:34:25;21.50;81.70
5176;DHT22;2607;50.934;6.934;2022-07-01T15:36:50;21.50;82.50
5176;DHT22;2607;50.934;6.934;2022-07-01T15:39:16;21.50;81.20
5176;DHT22;2607;50.934;6.934;2022-07-01T15:41:43;21.60;81.40
5176;DHT22;2607;50.934;6.934;2022-07-01T15:44:09;21.50;81.20
5176;DHT22;2607;50.934;6.934;2022-07-01T15:46:35;21.50;81.10
5176;DHT22;2607;50.934;6.934;2022-07-01T15:49:02;21.50;81.20
5176;DHT22;2607;50.934;6.934;2022-07-01T15:51:27;21.50;79.60
5176;DHT22;2607;50.934;6.934;2022-07-01T15:53:56;21.50;79.00
5176;DHT22;2607;50.934;6.934;2022-07-01T15:56:28;21.50;79.00
5176;DHT22;2607;50.934;6.934;2022-07-01T15:58:54;21.50;79.00
5176;DHT22;2607;50.934;6.934;2022-07-01T16:01:20;21.60;78.90
5176;DHT22;2607;50.934;6.934;2022-07-01T16:03:50;21.50;78.10
5176;DHT22;2607;50.934;6.934;2022-07-01T16:06:17;21.50;78.30
5176;DHT22;2607;50.934;6.934;2022-07-01T16:08:46;21.50;79.20
5176;DHT22;2607;50.934;6.934;2022-07-01T16:11:15;21.50;80.50
5176;DHT22;2607;50.934;6.934;2022-07-01T16:13:50;21.50;80.40
5176;DHT22;2607;50.934;6.934;2022-07-01T16:16:20;21.50;80.40
5176;DHT22;2607;50.934;6.934;2022-07-01T16:18:50;21.60;78.90
5176;DHT22;2607;50.934;6.934;2022-07-01T16:21:17;21.60;79.20
5176;DHT22;2607;50.934;6.934;2022-07-01T16:23:47;21.50;79.80